sensor_id;sensor_type;location;lat;lon;timestamp;pressure;altitude;pressure_sealevel;temperature;humidity
12073;BME280;6098;49.004;8.372;2022-11-20T00:12:39;99986.64;;;6.53;95.80
12073;BME280;6098;49.004;8.372;2022-11-20T00:27:31;99984.94;;;6.51;95.62
12073;BME280;6098;49.004;8.372;2022-11-20T00:42:21;99989.28;;;6.52;95.56
12073;BME280;6098;49.004;8.372;2022-11-20T00:57:12;99974.34;;;6.54;95.56
12073;BME280;6098;49.004;8.372;2022-11-20T01:12:03;99973.09;;;6.50;96.79
12073;BME280;6098;49.004;8.372;2022-11-20T01:26:53;99969.58;;;6.65;97.63
12073;BME280;6098;49.004;8.372;2022-11-20T01:41:44;99965.34;;;6.75;98.73
12073;BME280;6098;49.004;8.372;2022-11-20T01:56:58;99955.98;;;6.94;99.94
12073;BME280;6098;49.004;8.372;2022-11-20T02:11:49;99958.23;;;7.19;100.00
12073;BME280;6098;49.004;8.372;2022-11-20T02:41:33;99961.30;;;7.73;100.00
12073;BME280;6098;49.004;8.372;2022-11-20T02:56:23;99940.87;;;7.91;98.02
12073;BME280;6098;49.004;8.372;2022-11-20T03:11:30;99944.88;;;8.02;96.59
12073;BME280;6098;49.004;8.372;2022-11-20T03:26:17;99940.34;;;8.06;94.79
12073;BME280;6098;49.004;8.372;2022-11-20T03:41:08;99931.39;;;8.11;94.31
12073;BME280;6098;49.004;8.372;2022-11-20T03:55:57;99932.08;;;8.16;93.53
12073;BME280;6098;49.004;8.372;2022-11-20T04:10:47;99924.53;;;8.17;91.88
12073;BME280;6098;49.004;8.372;2022-11-20T04:25:38;99934.00;;;8.23;91.45
12073;BME280;6098;49.004;8.372;2022-11-20T04:40:29;99920.75;;;8.26;92.06
12073;BME280;6098;49.004;8.372;2022-11-20T04:55:20;99926.04;;;8.25;91.98
12073;BME280;6098;49.004;8.372;2022-11-20T05:10:11;99919.05;;;8.23;91.49
12073;BME280;6098;49.004;8.372;2022-11-20T05:25:02;99912.14;;;8.19;91.35
12073;BME280;6098;49.004;8.372;2022-11-20T05:39:53;99908.67;;;8.18;90.61
12073;BME280;6098;49.004;8.372;2022-11-20T05:54:44;99908.16;;;8.20;90.20
12073;BME280;6098;49.004;8.372;2022-11-20T06:09:35;99905.46;;;8.22;89.68
12073;BME280;6098;49.004;8.372;2022-11-20T06:24:26;99917.36;;;8.21;89.23
12073;BME280;6098;49.004;8.372;2022-11-20T06:39:16;99922.11;;;8.24;89.61
12073;BME280;6098;49.004;8.372;2022-11-20T06:54:07;99920.91;;;8.21;90.12
12073;BME280;6098;49.004;8.372;2022-11-20T07:08:58;99946.02;;;8.19;90.57
12073;BME280;6098;49.004;8.372;2022-11-20T07:23:48;99948.34;;;8.17;92.37
12073;BME280;6098;49.004;8.372;2022-11-20T07:38:39;99952.97;;;8.23;93.19
12073;BME280;6098;49.004;8.372;2022-11-20T07:53:30;99964.94;;;8.19;93.42
12073;BME280;6098;49.004;8.372;2022-11-20T08:08:20;99980.60;;;8.26;95.63
12073;BME280;6098;49.004;8.372;2022-11-20T08:23:12;99988.55;;;8.24;96.39
12073;BME280;6098;49.004;8.372;2022-11-20T08:38:06;100008.12;;;8.31;96.29
12073;BME280;6098;49.004;8.372;2022-11-20T08:53:05;100019.74;;;8.38;95.69
12073;BME280;6098;49.004;8.372;2022-11-20T09:08:01;100022.70;;;8.42;95.63
12073;BME280;6098;49.004;8.372;2022-11-20T09:22:52;100032.45;;;8.53;95.57
12073;BME280;6098;49.004;8.372;2022-11-20T09:37:43;100042.03;;;8.68;97.29
12073;BME280;6098;49.004;8.372;2022-11-20T09:52:40;100046.36;;;8.57;97.65
12073;BME280;6098;49.004;8.372;2022-11-20T10:07:55;100059.91;;;8.60;99.14
12073;BME280;6098;49.004;8.372;2022-11-20T10:37:59;100027.92;;;9.02;97.71
12073;BME280;6098;49.004;8.372;2022-11-20T10:52:57;99999.80;;;9.11;96.52
12073;BME280;6098;49.004;8.372;2022-11-20T11:07:55;99986.64;;;9.32;92.62
12073;BME280;6098;49.004;8.372;2022-11-20T11:22:51;99962.37;;;9.85;87.24
12073;BME280;6098;49.004;8.372;2022-11-20T11:37:42;99938.08;;;10.07;82.52
12073;BME280;6098;49.004;8.372;2022-11-20T11:52:33;99933.16;;;9.98;81.90
12073;BME280;6098;49.004;8.372;2022-11-20T12:07:42;99921.02;;;10.14;80.63
12073;BME280;6098;49.004;8.372;2022-11-20T13:08:36;99898.36;;;10.74;62.59
12073;BME280;6098;49.004;8.372;2022-11-20T13:23:27;99875.62;;;11.05;63.60
12073;BME280;6098;49.004;8.372;2022-11-20T13:38:16;99867.88;;;10.83;60.46
12073;BME280;6098;49.004;8.372;2022-11-20T14:23:25;99823.84;;;10.34;62.68
12073;BME280;6098;49.004;8.372;2022-11-20T14:38:18;99812.36;;;10.15;61.90
12073;BME280;6098;49.004;8.372;2022-11-20T14:53:09;99803.36;;;10.09;63.42
12073;BME280;6098;49.004;8.372;2022-11-20T15:08:08;99792.63;;;9.93;63.66
12073;BME280;6098;49.004;8.372;2022-11-20T15:23:08;99778.94;;;9.83;65.16
12073;BME280;6098;49.004;8.372;2022-11-20T15:37:53;99780.34;;;9.72;65.45
12073;BME280;6098;49.004;8.372;2022-11-20T15:52:44;99767.00;;;9.64;65.99
12073;BME280;6098;49.004;8.372;2022-11-20T16:07:35;99760.62;;;9.59;66.59
12073;BME280;6098;49.004;8.372;2022-11-20T16:22:25;99753.60;;;9.58;66.85
12073;BME280;6098;49.004;8.372;2022-11-20T16:37:18;99731.21;;;9.56;65.66
12073;BME280;6098;49.004;8.372;2022-11-20T16:52:09;99710.09;;;9.55;66.02
12073;BME280;6098;49.004;8.372;2022-11-20T17:07:00;99712.56;;;9.50;66.88
12073;BME280;6098;49.004;8.372;2022-11-20T17:22:04;99707.16;;;9.43;69.42
12073;BME280;6098;49.004;8.372;2022-11-20T17:36:54;99688.41;;;9.28;74.02
12073;BME280;6098;49.004;8.372;2022-11-20T17:51:45;99675.41;;;9.24;72.58
12073;BME280;6098;49.004;8.372;2022-11-20T18:06:36;99668.87;;;9.12;75.28
12073;BME280;6098;49.004;8.372;2022-11-20T18:21:26;99679.53;;;8.80;77.23
12073;BME280;6098;49.004;8.372;2022-11-20T18:36:19;99675.45;;;8.52;82.37
12073;BME280;6098;49.004;8.372;2022-11-20T18:51:10;99649.60;;;8.28;83.53
12073;BME280;6098;49.004;8.372;2022-11-20T19:05:59;99629.53;;;8.12;85.98
12073;BME280;6098;49.004;8.372;2022-11-20T19:20:49;99626.97;;;8.00;88.05
12073;BME280;6098;49.004;8.372;2022-11-20T19:35:40;99622.67;;;7.87;90.19
12073;BME280;6098;49.004;8.372;2022-11-20T19:50:31;99625.48;;;7.82;92.48
12073;BME280;6098;49.004;8.372;2022-11-20T20:05:21;99631.48;;;7.75;92.93
12073;BME280;6098;49.004;8.372;2022-11-20T20:20:11;99638.55;;;7.63;93.96
12073;BME280;6098;49.004;8.372;2022-11-20T20:35:02;99634.42;;;7.57;92.25
12073;BME280;6098;49.004;8.372;2022-11-20T20:49:53;99655.45;;;7.58;91.54
12073;BME280;6098;49.004;8.372;2022-11-20T21:04:50;99660.06;;;7.64;92.05
12073;BME280;6098;49.004;8.372;2022-11-20T21:19:40;99666.22;;;7.64;91.95
12073;BME280;6098;49.004;8.372;2022-11-20T21:34:31;99675.03;;;7.74;91.02
12073;BME280;6098;49.004;8.372;2022-11-20T21:49:22;99682.86;;;7.77;91.80
12073;BME280;6098;49.004;8.372;2022-11-20T22:04:13;99680.66;;;7.77;92.11
12073;BME280;6098;49.004;8.372;2022-11-20T22:19:05;99684.32;;;7.84;90.81
12073;BME280;6098;49.004;8.372;2022-11-20T22:33:55;99677.80;;;7.83;88.56
12073;BME280;6098;49.004;8.372;2022-11-20T22:49:01;99656.63;;;7.61;90.58
12073;BME280;6098;49.004;8.372;2022-11-20T23:03:51;99660.43;;;7.66;91.56
12073;BME280;6098;49.004;8.372;2022-11-20T23:18:41;99658.53;;;7.69;91.11
12073;BME280;6098;49.004;8.372;2022-11-20T23:33:35;99661.38;;;7.76;89.93
12073;BME280;6098;49.004;8.372;2022-11-20T23:48:29;99665.19;;;7.56;91.62
